Time;durP1;ratioP1;P1;durP2;ratioP2;P2;SDS_P1;SDS_P2;PMS_P1;PMS_P2;Temp;Humidity;BMP_temperature;BMP_pressure;BME280_temperature;BME280_humidity;BME280_pressure;Samples;Min_cycle;Max_cycle;Signal;HPM_P1;HPM_P2
2024/01/10 00:00:14;;;;;;;18.25;9.73;;;;;;;;;;5018642;28;20189;-87
2024/01/10 00:03:18;;;;;;;17.58;10.02;;;;;;;;;;5006692;28;20190;-87
2024/01/10 00:06:23;;;;;;;23.55;10.80;;;;;;;;;;5008453;28;20188;-87
2024/01/10 00:09:27;;;;;;;19.65;10.18;;;;;;;;;;5008692;28;20189;-87
2024/01/10 00:12:36;;;;;;;23.35;11.30;;;;;;;;;;5008643;28;20216;-87
2024/01/10 00:15:40;;;;;;;22.02;10.70;;;;;;;;;;5008228;28;20228;-88
2024/01/10 00:18:44;;;;;;;24.15;11.65;;;;;;;;;;5020249;28;20192;-87
2024/01/10 00:21:48;;;;;;;27.20;11.35;;;;;;;;;;5008776;28;20189;-87
2024/01/10 00:24:52;;;;;;;23.40;11.00;;;;;;;;;;4996628;28;20229;-88
2024/01/10 00:27:56;;;;;;;24.57;12.03;;;;;;;;;;4996792;28;20548;-87
2024/01/10 00:31:02;;;;;;;23.38;11.65;;;;;;;;;;5007168;28;20604;-87
2024/01/10 00:34:06;;;;;;;20.70;10.23;;;;;;;;;;5019345;28;20232;-88
2024/01/10 00:37:10;;;;;;;23.45;10.75;;;;;;;;;;5018777;28;20193;-87
2024/01/10 00:40:14;;;;;;;21.13;10.45;;;;;;;;;;5007301;28;20192;-87
2024/01/10 00:43:18;;;;;;;23.50;11.67;;;;;;;;;;5019739;28;20185;-87
2024/01/10 00:46:23;;;;;;;24.52;11.05;;;;;;;;;;5007614;28;20894;-87
2024/01/10 00:49:27;;;;;;;23.08;9.75;;;;;;;;;;5007780;28;20192;-88
2024/01/10 00:52:31;;;;;;;24.20;10.50;;;;;;;;;;5008362;28;20226;-87
2024/01/10 00:55:35;;;;;;;21.83;11.17;;;;;;;;;;5019593;28;20232;-87
2024/01/10 00:58:40;;;;;;;20.10;10.30;;;;;;;;;;5008434;28;20906;-87
2024/01/10 01:01:44;;;;;;;21.77;10.27;;;;;;;;;;5019689;28;20189;-87
2024/01/10 01:04:48;;;;;;;24.53;11.80;;;;;;;;;;5019297;28;20631;-87
2024/01/10 01:07:52;;;;;;;21.63;11.63;;;;;;;;;;5007041;28;20552;-87
2024/01/10 01:10:56;;;;;;;19.63;10.50;;;;;;;;;;5007200;28;20600;-87
2024/01/10 01:14:00;;;;;;;21.10;10.30;;;;;;;;;;4996095;28;21004;-87
2024/01/10 01:17:04;;;;;;;23.63;11.30;;;;;;;;;;5007131;28;20552;-87
2024/01/10 01:20:09;;;;;;;22.90;11.32;;;;;;;;;;5024314;28;20556;-87
2024/01/10 01:23:13;;;;;;;21.35;10.90;;;;;;;;;;5014207;28;20182;-87
2024/01/10 01:26:18;;;;;;;19.90;10.47;;;;;;;;;;4974891;28;20193;-87
2024/01/10 01:29:22;;;;;;;22.35;11.65;;;;;;;;;;5007323;28;20556;-87
2024/01/10 01:32:28;;;;;;;20.03;11.40;;;;;;;;;;4995206;28;20224;-88
2024/01/10 01:35:32;;;;;;;23.60;11.33;;;;;;;;;;5007070;28;20655;-87
2024/01/10 01:38:36;;;;;;;22.63;10.60;;;;;;;;;;4995369;28;20536;-88
2024/01/10 01:41:40;;;;;;;24.60;12.33;;;;;;;;;;5006511;28;20544;-88
2024/01/10 01:44:45;;;;;;;23.73;10.85;;;;;;;;;;5018355;28;21001;-87
2024/01/10 01:47:49;;;;;;;20.48;10.85;;;;;;;;;;4994757;28;20193;-88
2024/01/10 01:51:05;;;;;;;22.80;12.07;;;;;;;;;;5005630;28;20192;-88
2024/01/10 01:54:11;;;;;;;21.83;10.90;;;;;;;;;;4994316;28;20225;-87
2024/01/10 01:57:15;;;;;;;24.52;10.85;;;;;;;;;;5005971;28;20552;-87
2024/01/10 02:00:19;;;;;;;23.80;11.40;;;;;;;;;;5017724;28;20189;-87
2024/01/10 02:03:23;;;;;;;21.57;11.50;;;;;;;;;;4994032;28;20552;-87
2024/01/10 02:06:30;;;;;;;19.73;11.10;;;;;;;;;;5017508;28;20548;-87
2024/01/10 02:09:35;;;;;;;23.67;11.33;;;;;;;;;;5016911;28;20574;-87
2024/01/10 02:12:39;;;;;;;19.33;10.80;;;;;;;;;;5004989;28;21183;-87
2024/01/10 02:15:44;;;;;;;21.80;9.97;;;;;;;;;;4994385;28;20623;-87
2024/01/10 02:18:48;;;;;;;22.83;11.43;;;;;;;;;;4993757;28;20553;-87
2024/01/10 02:21:52;;;;;;;22.65;11.20;;;;;;;;;;4993095;28;21116;-87
2024/01/10 02:24:56;;;;;;;22.43;10.73;;;;;;;;;;5004327;28;20232;-87
2024/01/10 02:28:00;;;;;;;24.70;11.77;;;;;;;;;;5004816;28;20568;-87
2024/01/10 02:31:05;;;;;;;20.65;10.55;;;;;;;;;;5016373;28;20918;-87
2024/01/10 02:34:09;;;;;;;20.63;10.40;;;;;;;;;;5015507;28;20304;-87
2024/01/10 02:37:13;;;;;;;22.45;11.45;;;;;;;;;;5016196;28;20193;-87
2024/01/10 02:40:17;;;;;;;25.20;12.27;;;;;;;;;;5004600;28;20196;-88
2024/01/10 02:43:21;;;;;;;23.50;11.18;;;;;;;;;;4993190;28;20560;-87
2024/01/10 02:46:28;;;;;;;18.88;10.50;;;;;;;;;;5016215;28;20204;-87
2024/01/10 02:49:33;;;;;;;23.17;11.90;;;;;;;;;;4993402;28;20184;-87
2024/01/10 02:52:37;;;;;;;22.42;11.55;;;;;;;;;;5003960;28;20221;-87
2024/01/10 02:55:43;;;;;;;27.08;12.63;;;;;;;;;;5005510;28;20593;-85
2024/01/10 02:58:47;;;;;;;20.70;11.47;;;;;;;;;;5018247;28;20193;-85
2024/01/10 03:01:51;;;;;;;19.77;10.80;;;;;;;;;;5016724;28;20544;-85
2024/01/10 03:04:55;;;;;;;18.85;10.68;;;;;;;;;;5004086;28;20631;-85
2024/01/10 03:08:02;;;;;;;27.42;11.82;;;;;;;;;;4993946;28;20197;-85
2024/01/10 03:11:06;;;;;;;23.75;11.50;;;;;;;;;;5005062;28;20188;-85
2024/01/10 03:14:10;;;;;;;26.92;12.70;;;;;;;;;;5005442;28;20228;-85
2024/01/10 03:17:14;;;;;;;21.73;12.13;;;;;;;;;;4994369;28;20192;-85
2024/01/10 03:20:19;;;;;;;23.95;12.65;;;;;;;;;;5017284;28;20185;-85
2024/01/10 03:23:23;;;;;;;21.42;11.20;;;;;;;;;;5005366;28;20193;-85
2024/01/10 03:26:28;;;;;;;26.00;11.30;;;;;;;;;;5016883;28;20193;-85
2024/01/10 03:29:32;;;;;;;25.30;12.43;;;;;;;;;;5017491;28;20193;-85
2024/01/10 03:32:36;;;;;;;22.83;12.95;;;;;;;;;;5005601;28;20216;-86
2024/01/10 03:35:41;;;;;;;24.92;11.93;;;;;;;;;;4982608;28;20232;-85
2024/01/10 03:38:45;;;;;;;22.17;11.52;;;;;;;;;;5005549;28;20666;-85
2024/01/10 03:41:49;;;;;;;23.98;11.52;;;;;;;;;;5016911;28;20185;-86
2024/01/10 03:44:53;;;;;;;24.88;12.00;;;;;;;;;;5004668;28;20249;-85
2024/01/10 03:47:58;;;;;;;25.17;11.77;;;;;;;;;;5009533;28;20193;-85
2024/01/10 03:51:04;;;;;;;24.48;13.02;;;;;;;;;;5009040;28;20196;-85
2024/01/10 03:54:08;;;;;;;27.80;12.38;;;;;;;;;;5009128;28;20220;-85
2024/01/10 03:57:12;;;;;;;24.00;12.18;;;;;;;;;;5021110;28;20196;-85
2024/01/10 04:00:16;;;;;;;28.25;14.10;;;;;;;;;;5009744;28;20265;-85
2024/01/10 04:03:20;;;;;;;26.05;12.27;;;;;;;;;;5008295;28;20188;-86
2024/01/10 04:06:24;;;;;;;27.15;13.15;;;;;;;;;;5007504;28;20193;-87
2024/01/10 04:09:29;;;;;;;24.90;12.75;;;;;;;;;;5007508;28;20192;-87
2024/01/10 04:12:33;;;;;;;24.60;13.57;;;;;;;;;;4995776;28;20220;-87
2024/01/10 04:15:37;;;;;;;25.58;13.70;;;;;;;;;;5007248;28;20225;-87
2024/01/10 04:18:41;;;;;;;25.10;12.68;;;;;;;;;;4995624;28;20253;-87
2024/01/10 04:21:45;;;;;;;27.58;13.40;;;;;;;;;;5006748;28;20188;-88
2024/01/10 04:24:49;;;;;;;25.05;14.18;;;;;;;;;;4995571;28;20613;-87
2024/01/10 04:27:53;;;;;;;25.65;13.10;;;;;;;;;;5006833;28;20200;-87
2024/01/10 04:30:58;;;;;;;26.65;13.10;;;;;;;;;;5026150;28;20196;-87
2024/01/10 04:34:02;;;;;;;24.98;12.88;;;;;;;;;;5019006;28;20231;-88
2024/01/10 04:37:06;;;;;;;27.48;13.13;;;;;;;;;;4997492;28;20205;-87
2024/01/10 04:40:11;;;;;;;29.02;13.48;;;;;;;;;;5007763;28;20188;-87
2024/01/10 04:43:15;;;;;;;26.52;14.48;;;;;;;;;;5007657;28;20189;-87
2024/01/10 04:46:19;;;;;;;27.70;13.55;;;;;;;;;;5007731;28;20261;-88
2024/01/10 04:49:23;;;;;;;28.65;14.00;;;;;;;;;;4995897;28;20197;-86
2024/01/10 04:52:29;;;;;;;26.45;14.25;;;;;;;;;;5006930;28;20279;-88
2024/01/10 04:55:33;;;;;;;32.08;15.18;;;;;;;;;;5020294;28;20220;-86
2024/01/10 04:58:38;;;;;;;29.65;13.73;;;;;;;;;;5008738;28;20192;-85
2024/01/10 05:01:42;;;;;;;30.05;15.30;;;;;;;;;;4998254;28;20193;-86
2024/01/10 05:04:46;;;;;;;27.17;13.32;;;;;;;;;;5009744;28;20232;-85
2024/01/10 05:07:51;;;;;;;31.50;14.13;;;;;;;;;;4999156;28;20197;-85
2024/01/10 05:10:55;;;;;;;30.45;15.00;;;;;;;;;;4998042;28;20193;-85
2024/01/10 05:13:59;;;;;;;28.30;13.70;;;;;;;;;;4997209;28;20593;-85
2024/01/10 05:17:04;;;;;;;26.15;13.50;;;;;;;;;;5020471;28;20189;-85
2024/01/10 05:20:09;;;;;;;25.98;14.23;;;;;;;;;;4996948;28;20201;-85
2024/01/10 05:23:13;;;;;;;27.40;14.43;;;;;;;;;;4996005;28;20192;-87
2024/01/10 05:26:17;;;;;;;29.70;13.68;;;;;;;;;;5006555;28;20550;-87
2024/01/10 05:29:23;;;;;;;28.30;13.52;;;;;;;;;;5006650;28;20665;-87
2024/01/10 05:32:28;;;;;;;25.35;13.70;;;;;;;;;;5006821;28;20216;-87
2024/01/10 05:35:32;;;;;;;33.00;14.90;;;;;;;;;;5006219;28;20236;-87
2024/01/10 05:38:36;;;;;;;27.85;14.18;;;;;;;;;;5007089;28;20193;-87
2024/01/10 05:41:40;;;;;;;31.13;15.30;;;;;;;;;;5017008;28;20200;-87
2024/01/10 05:44:44;;;;;;;32.35;15.63;;;;;;;;;;5006002;28;20716;-88
2024/01/10 05:47:48;;;;;;;35.60;16.92;;;;;;;;;;5017582;28;20196;-87
2024/01/10 05:50:52;;;;;;;34.35;15.73;;;;;;;;;;4995670;28;20193;-87
2024/01/10 05:53:57;;;;;;;31.50;16.15;;;;;;;;;;5006169;28;20240;-87
2024/01/10 05:57:02;;;;;;;35.33;17.05;;;;;;;;;;5005075;28;20192;-88
2024/01/10 06:00:09;;;;;;;34.50;17.25;;;;;;;;;;4994410;28;20208;-88
2024/01/10 06:03:13;;;;;;;33.78;16.45;;;;;;;;;;4994902;28;20189;-87
2024/01/10 06:06:17;;;;;;;35.85;17.23;;;;;;;;;;5005551;28;20189;-87
2024/01/10 06:09:22;;;;;;;36.88;17.10;;;;;;;;;;5005479;28;20686;-87
2024/01/10 06:12:26;;;;;;;36.08;17.58;;;;;;;;;;5018208;28;20240;-87
2024/01/10 06:15:30;;;;;;;39.25;18.80;;;;;;;;;;5017714;28;20228;-86
2024/01/10 06:18:34;;;;;;;36.25;18.27;;;;;;;;;;5005941;28;20582;-86
2024/01/10 06:21:39;;;;;;;41.83;18.90;;;;;;;;;;5005514;28;20222;-84
2024/01/10 06:24:43;;;;;;;38.85;18.65;;;;;;;;;;5005446;28;20216;-86
2024/01/10 06:27:47;;;;;;;42.00;19.48;;;;;;;;;;5006020;28;20192;-86
2024/01/10 06:30:52;;;;;;;35.75;17.92;;;;;;;;;;5017469;28;20661;-85
2024/01/10 06:33:56;;;;;;;42.03;18.80;;;;;;;;;;5016598;28;20244;-86
2024/01/10 06:37:00;;;;;;;41.70;18.95;;;;;;;;;;5005123;28;21139;-86
2024/01/10 06:40:05;;;;;;;78.93;30.05;;;;;;;;;;5005109;28;20212;-85
2024/01/10 06:43:10;;;;;;;90.57;35.58;;;;;;;;;;5017156;28;20193;-86
2024/01/10 06:46:14;;;;;;;71.60;28.38;;;;;;;;;;5005805;28;20193;-86
2024/01/10 06:49:18;;;;;;;60.00;26.17;;;;;;;;;;4994595;28;20188;-86
2024/01/10 06:52:22;;;;;;;56.40;25.13;;;;;;;;;;5005854;28;20212;-86
2024/01/10 06:55:29;;;;;;;53.58;22.95;;;;;;;;;;4995502;28;20251;-87
2024/01/10 06:58:33;;;;;;;39.45;20.83;;;;;;;;;;5024114;28;20614;-87
2024/01/10 07:01:39;;;;;;;53.63;21.90;;;;;;;;;;5037182;28;20183;-87
2024/01/10 07:04:43;;;;;;;40.57;19.53;;;;;;;;;;5025909;28;20233;-87
2024/01/10 07:07:49;;;;;;;39.07;19.10;;;;;;;;;;5025197;28;20565;-87
2024/01/10 07:10:55;;;;;;;44.08;19.00;;;;;;;;;;5026049;28;20547;-87
2024/01/10 07:14:00;;;;;;;35.83;17.70;;;;;;;;;;5025253;28;20597;-87
2024/01/10 07:17:05;;;;;;;46.35;20.02;;;;;;;;;;5027202;28;21127;-87
2024/01/10 07:20:11;;;;;;;41.65;20.60;;;;;;;;;;5024676;28;20200;-87
2024/01/10 07:23:16;;;;;;;44.33;19.52;;;;;;;;;;5029768;28;20192;-87
2024/01/10 07:26:19;;;;;;;44.57;21.17;;;;;;;;;;5029124;28;20656;-88
2024/01/10 07:29:24;;;;;;;43.40;22.10;;;;;;;;;;5017555;28;20559;-87
2024/01/10 07:32:28;;;;;;;44.97;21.73;;;;;;;;;;5041138;28;20551;-88
2024/01/10 07:35:33;;;;;;;42.43;20.67;;;;;;;;;;5028226;28;20649;-86
2024/01/10 07:38:38;;;;;;;45.07;21.43;;;;;;;;;;5029064;28;20563;-86
2024/01/10 07:41:42;;;;;;;50.20;20.90;;;;;;;;;;5048878;28;20561;-86
2024/01/10 07:44:46;;;;;;;42.03;19.57;;;;;;;;;;5053089;28;20615;-88
2024/01/10 07:47:51;;;;;;;54.47;22.17;;;;;;;;;;5032705;28;20555;-87
2024/01/10 07:50:56;;;;;;;51.78;23.08;;;;;;;;;;5042110;28;20563;-86
2024/01/10 07:54:01;;;;;;;51.22;22.30;;;;;;;;;;5029991;28;20243;-86
2024/01/10 07:57:06;;;;;;;37.00;18.73;;;;;;;;;;5041809;28;20200;-86
2024/01/10 08:00:12;;;;;;;37.63;17.60;;;;;;;;;;5040529;28;20551;-86
2024/01/10 08:03:16;;;;;;;39.58;17.42;;;;;;;;;;5028636;28;20559;-85
2024/01/10 08:06:20;;;;;;;39.17;17.92;;;;;;;;;;5028579;28;20195;-85
2024/01/10 08:09:25;;;;;;;40.95;18.10;;;;;;;;;;5039771;28;20184;-86
2024/01/10 08:12:30;;;;;;;37.10;17.35;;;;;;;;;;5040211;28;20566;-86
2024/01/10 08:15:35;;;;;;;43.55;18.63;;;;;;;;;;5028750;28;20712;-87
2024/01/10 08:18:39;;;;;;;34.70;18.80;;;;;;;;;;5029066;28;20656;-86
2024/01/10 08:21:43;;;;;;;38.97;18.10;;;;;;;;;;5028533;28;20931;-86
2024/01/10 08:24:47;;;;;;;38.10;18.40;;;;;;;;;;5016876;28;20618;-85
2024/01/10 08:27:55;;;;;;;35.40;17.70;;;;;;;;;;5040539;28;20563;-85
2024/01/10 08:30:59;;;;;;;39.43;18.10;;;;;;;;;;5028800;28;20555;-88
2024/01/10 08:34:04;;;;;;;44.73;19.50;;;;;;;;;;5026207;28;20673;-85
2024/01/10 08:37:08;;;;;;;45.23;18.03;;;;;;;;;;5038893;28;20639;-86
2024/01/10 08:40:17;;;;;;;39.20;18.73;;;;;;;;;;5040160;28;20563;-85
2024/01/10 08:43:21;;;;;;;38.60;19.00;;;;;;;;;;5038887;28;20562;-85
2024/01/10 08:46:25;;;;;;;42.57;19.67;;;;;;;;;;5040770;28;20551;-85
2024/01/10 08:49:29;;;;;;;45.37;18.80;;;;;;;;;;5027979;28;20555;-85
2024/01/10 08:52:37;;;;;;;39.50;18.93;;;;;;;;;;5039181;28;20921;-86
2024/01/10 08:55:41;;;;;;;47.57;20.97;;;;;;;;;;5038717;28;20611;-85
2024/01/10 08:58:46;;;;;;;40.93;20.47;;;;;;;;;;5027764;28;20551;-85
2024/01/10 09:01:52;;;;;;;45.10;21.67;;;;;;;;;;5027156;28;20563;-86
2024/01/10 09:04:56;;;;;;;42.80;19.70;;;;;;;;;;5026740;28;20614;-85
2024/01/10 09:08:00;;;;;;;41.93;19.97;;;;;;;;;;5039340;28;20559;-86
2024/01/10 09:11:04;;;;;;;41.37;20.33;;;;;;;;;;5027006;28;20944;-86
2024/01/10 09:14:08;;;;;;;45.30;19.50;;;;;;;;;;5039384;28;20666;-88
2024/01/10 09:17:12;;;;;;;38.33;18.63;;;;;;;;;;5026183;28;20563;-87
2024/01/10 09:20:16;;;;;;;35.60;17.83;;;;;;;;;;5041526;28;20559;-87
2024/01/10 09:23:21;;;;;;;44.23;18.90;;;;;;;;;;5026028;28;20555;-87
2024/01/10 09:26:25;;;;;;;43.60;20.37;;;;;;;;;;5025824;28;20559;-86
2024/01/10 09:29:29;;;;;;;45.23;20.67;;;;;;;;;;5014118;28;20944;-86
2024/01/10 09:32:33;;;;;;;43.70;19.97;;;;;;;;;;5036931;28;20559;-87
2024/01/10 09:35:37;;;;;;;40.97;19.50;;;;;;;;;;5025246;28;20654;-86
2024/01/10 09:38:41;;;;;;;40.47;19.43;;;;;;;;;;5025746;28;20559;-87
2024/01/10 09:41:48;;;;;;;32.83;17.20;;;;;;;;;;5037348;28;20563;-87
2024/01/10 09:44:52;;;;;;;43.47;18.93;;;;;;;;;;5024841;28;20623;-87
2024/01/10 09:47:56;;;;;;;41.73;19.07;;;;;;;;;;5014329;28;20555;-87
2024/01/10 09:51:01;;;;;;;41.13;19.73;;;;;;;;;;5037249;28;20555;-87
2024/01/10 09:54:05;;;;;;;45.50;21.60;;;;;;;;;;5013721;28;21008;-86
2024/01/10 09:57:09;;;;;;;42.47;19.90;;;;;;;;;;5036665;28;20559;-86
2024/01/10 10:00:16;;;;;;;42.17;20.60;;;;;;;;;;5025131;28;20562;-87
2024/01/10 10:03:20;;;;;;;42.23;21.40;;;;;;;;;;5036968;28;20559;-86
2024/01/10 10:06:24;;;;;;;43.00;19.93;;;;;;;;;;5025707;28;20551;-86
2024/01/10 10:09:31;;;;;;;41.43;19.43;;;;;;;;;;5025086;28;20563;-86
2024/01/10 10:12:52;;;;;;;42.67;20.47;;;;;;;;;;5039146;28;21141;-87
2024/01/10 10:16:01;;;;;;;40.97;20.10;;;;;;;;;;5024637;28;20560;-85
2024/01/10 10:19:05;;;;;;;45.23;19.17;;;;;;;;;;5024705;28;20560;-85
2024/01/10 10:22:10;;;;;;;35.93;18.30;;;;;;;;;;5024605;28;20554;-86
2024/01/10 10:25:16;;;;;;;44.10;19.77;;;;;;;;;;5024675;28;20626;-84
2024/01/10 10:28:20;;;;;;;46.60;21.43;;;;;;;;;;5035510;28;20623;-85
2024/01/10 10:31:24;;;;;;;45.47;21.50;;;;;;;;;;5035726;28;20559;-85
2024/01/10 10:34:33;;;;;;;45.63;20.87;;;;;;;;;;5023662;28;21024;-85
2024/01/10 10:37:38;;;;;;;45.27;20.53;;;;;;;;;;5035404;28;20555;-86
2024/01/10 10:40:42;;;;;;;44.60;21.03;;;;;;;;;;5035457;28;20563;-85
2024/01/10 10:43:50;;;;;;;43.33;20.93;;;;;;;;;;5024282;28;20575;-85
2024/01/10 10:46:55;;;;;;;43.13;22.00;;;;;;;;;;5046513;28;20567;-86
2024/01/10 10:50:02;;;;;;;45.13;21.33;;;;;;;;;;5032249;28;20554;-87
2024/01/10 10:53:07;;;;;;;42.60;19.93;;;;;;;;;;5003373;28;20567;-86
2024/01/10 10:56:13;;;;;;;46.87;22.73;;;;;;;;;;5024908;28;20547;-85
2024/01/10 10:59:19;;;;;;;46.73;21.03;;;;;;;;;;5025131;28;20554;-85
2024/01/10 11:02:24;;;;;;;45.97;21.97;;;;;;;;;;5025287;28;20558;-85
2024/01/10 11:05:28;;;;;;;46.20;22.23;;;;;;;;;;5035664;28;21214;-85
2024/01/10 11:08:38;;;;;;;47.93;21.50;;;;;;;;;;5024353;28;20563;-85
2024/01/10 11:12:04;;;;;;;50.50;21.00;;;;;;;;;;5013307;28;20571;-85
2024/01/10 11:15:47;;;;;;;41.07;19.93;;;;;;;;;;5035670;28;20658;-86
2024/01/10 11:19:04;;;;;;;38.43;18.90;;;;;;;;;;5013852;28;20630;-86
2024/01/10 11:22:46;;;;;;;38.30;19.37;;;;;;;;;;5035501;28;21123;-86
2024/01/10 11:25:51;;;;;;;38.60;19.77;;;;;;;;;;5036451;28;20610;-86
2024/01/10 11:28:57;;;;;;;45.07;20.43;;;;;;;;;;5012607;28;20555;-86
2024/01/10 11:32:01;;;;;;;36.37;19.03;;;;;;;;;;5036950;28;20559;-86
2024/01/10 11:35:18;;;;;;;43.53;19.63;;;;;;;;;;5023147;28;20665;-86
2024/01/10 11:38:22;;;;;;;37.07;19.27;;;;;;;;;;5022524;28;20551;-85
2024/01/10 11:41:37;;;;;;;36.80;19.40;;;;;;;;;;5011180;28;20952;-85
2024/01/10 11:44:53;;;;;;;37.87;19.17;;;;;;;;;;5022777;28;20627;-86
2024/01/10 11:47:58;;;;;;;40.73;19.30;;;;;;;;;;5011143;28;20922;-86
2024/01/10 11:51:03;;;;;;;43.37;19.20;;;;;;;;;;5023503;28;20563;-86
2024/01/10 11:54:07;;;;;;;39.30;19.17;;;;;;;;;;5034345;28;20650;-86
2024/01/10 11:57:22;;;;;;;44.70;18.93;;;;;;;;;;5022428;28;21130;-86
2024/01/10 12:00:26;;;;;;;37.67;19.80;;;;;;;;;;5033441;28;20920;-86
2024/01/10 12:03:31;;;;;;;41.90;18.90;;;;;;;;;;5021803;28;20555;-86
2024/01/10 12:06:36;;;;;;;38.83;19.63;;;;;;;;;;5034977;28;20559;-86
2024/01/10 12:09:41;;;;;;;38.67;19.40;;;;;;;;;;5039025;28;20552;-86
2024/01/10 12:12:45;;;;;;;37.07;18.70;;;;;;;;;;5038928;28;20571;-86
2024/01/10 12:15:50;;;;;;;43.47;19.20;;;;;;;;;;5026242;28;20654;-86
2024/01/10 12:18:54;;;;;;;37.70;18.77;;;;;;;;;;5037615;28;20579;-86
2024/01/10 12:21:59;;;;;;;38.70;19.03;;;;;;;;;;5037698;28;20551;-86
2024/01/10 12:25:06;;;;;;;41.57;19.33;;;;;;;;;;5027631;28;20698;-86
2024/01/10 12:28:16;;;;;;;43.57;21.23;;;;;;;;;;5037535;28;20567;-86
2024/01/10 12:31:22;;;;;;;37.93;19.13;;;;;;;;;;5003561;28;20563;-86
2024/01/10 12:34:26;;;;;;;36.60;19.10;;;;;;;;;;5037198;28;20676;-86
2024/01/10 12:37:31;;;;;;;39.67;20.73;;;;;;;;;;5036891;28;20566;-86
2024/01/10 12:40:35;;;;;;;39.33;18.20;;;;;;;;;;5014224;28;20563;-87
2024/01/10 12:43:39;;;;;;;37.03;20.07;;;;;;;;;;5025583;28;20555;-87
2024/01/10 12:46:54;;;;;;;40.73;19.87;;;;;;;;;;5025753;28;20562;-87
2024/01/10 12:49:58;;;;;;;39.47;20.00;;;;;;;;;;5014391;28;20559;-88
2024/01/10 12:53:02;;;;;;;44.63;21.80;;;;;;;;;;5036537;28;20638;-87
2024/01/10 12:56:07;;;;;;;45.63;20.47;;;;;;;;;;5025112;28;20611;-88
2024/01/10 12:59:13;;;;;;;38.10;19.90;;;;;;;;;;5035928;28;20555;-88
2024/01/10 13:02:17;;;;;;;42.50;20.57;;;;;;;;;;5013843;28;21130;-86
2024/01/10 13:05:22;;;;;;;39.67;20.13;;;;;;;;;;5036719;28;20621;-88
2024/01/10 13:08:26;;;;;;;39.37;20.33;;;;;;;;;;5025217;28;20559;-86
2024/01/10 13:11:37;;;;;;;42.37;20.13;;;;;;;;;;5026717;28;20555;-85
2024/01/10 13:14:42;;;;;;;40.27;21.33;;;;;;;;;;5035964;28;20658;-86
2024/01/10 13:17:47;;;;;;;41.20;21.20;;;;;;;;;;5013792;28;20567;-86
2024/01/10 13:20:51;;;;;;;39.33;19.37;;;;;;;;;;5024867;28;20571;-86
2024/01/10 13:23:56;;;;;;;42.90;21.70;;;;;;;;;;5035820;28;20622;-86
2024/01/10 13:27:00;;;;;;;45.37;20.83;;;;;;;;;;5025027;28;20535;-86
2024/01/10 13:30:05;;;;;;;37.37;20.53;;;;;;;;;;5037163;28;20943;-86
2024/01/10 13:33:10;;;;;;;37.63;20.63;;;;;;;;;;5025138;28;21087;-86
2024/01/10 13:36:14;;;;;;;42.43;20.40;;;;;;;;;;5024979;28;20603;-86
2024/01/10 13:39:18;;;;;;;40.03;20.03;;;;;;;;;;5001586;28;20543;-86
2024/01/10 13:42:23;;;;;;;43.80;20.87;;;;;;;;;;5023839;28;20920;-85
2024/01/10 13:45:28;;;;;;;40.33;21.17;;;;;;;;;;5034977;28;20630;-85
2024/01/10 13:48:32;;;;;;;37.63;20.67;;;;;;;;;;5036087;28;20547;-86
2024/01/10 13:51:36;;;;;;;42.13;20.70;;;;;;;;;;4980007;28;20675;-87
2024/01/10 13:54:40;;;;;;;50.17;21.90;;;;;;;;;;4993783;28;20659;-86
2024/01/10 13:57:44;;;;;;;46.97;22.03;;;;;;;;;;5017139;28;20571;-85
2024/01/10 14:00:49;;;;;;;46.47;21.67;;;;;;;;;;5018085;28;20901;-87
2024/01/10 14:03:54;;;;;;;44.10;22.17;;;;;;;;;;4984348;28;20984;-87
2024/01/10 14:06:57;;;;;;;45.90;22.77;;;;;;;;;;4994963;28;20551;-87
2024/01/10 14:10:02;;;;;;;44.30;21.83;;;;;;;;;;4994818;28;20556;-86
2024/01/10 14:13:06;;;;;;;44.37;22.17;;;;;;;;;;5005519;28;20571;-86
2024/01/10 14:16:11;;;;;;;45.73;21.67;;;;;;;;;;4994295;28;20604;-85
2024/01/10 14:19:17;;;;;;;44.93;22.17;;;;;;;;;;5017366;28;20548;-85
2024/01/10 14:22:23;;;;;;;44.77;22.80;;;;;;;;;;5016819;28;20544;-85
2024/01/10 14:25:28;;;;;;;43.97;22.10;;;;;;;;;;4982380;28;20631;-85
2024/01/10 14:28:33;;;;;;;44.57;22.10;;;;;;;;;;5004996;28;20580;-85
2024/01/10 14:31:37;;;;;;;50.97;22.20;;;;;;;;;;5017175;28;20547;-85
2024/01/10 14:34:41;;;;;;;43.00;22.60;;;;;;;;;;5004573;28;20654;-85
2024/01/10 14:37:45;;;;;;;46.20;23.00;;;;;;;;;;4992997;28;20568;-85
2024/01/10 14:40:49;;;;;;;50.17;23.40;;;;;;;;;;5004098;28;20564;-85
2024/01/10 14:43:56;;;;;;;46.40;22.47;;;;;;;;;;5016611;28;20628;-85
2024/01/10 14:47:01;;;;;;;44.10;23.20;;;;;;;;;;5004480;28;20556;-86
2024/01/10 14:50:05;;;;;;;52.03;23.90;;;;;;;;;;4993371;28;20563;-85
2024/01/10 14:53:09;;;;;;;46.83;23.00;;;;;;;;;;5004427;28;20556;-85
2024/01/10 14:56:13;;;;;;;45.80;21.73;;;;;;;;;;4992806;28;20612;-87
2024/01/10 14:59:18;;;;;;;53.50;24.63;;;;;;;;;;5015980;28;20559;-84
2024/01/10 15:02:22;;;;;;;50.07;24.00;;;;;;;;;;5015693;28;20564;-84
2024/01/10 15:05:27;;;;;;;46.57;23.20;;;;;;;;;;5004537;28;20611;-85
2024/01/10 15:08:31;;;;;;;51.67;24.60;;;;;;;;;;5004162;28;20552;-85
2024/01/10 15:11:38;;;;;;;46.53;23.40;;;;;;;;;;5016066;28;20576;-86
2024/01/10 15:14:42;;;;;;;47.83;24.17;;;;;;;;;;5004195;28;20634;-85
2024/01/10 15:17:48;;;;;;;47.70;22.63;;;;;;;;;;5015902;28;20568;-87
2024/01/10 15:20:52;;;;;;;45.90;23.63;;;;;;;;;;4992860;28;20563;-85
2024/01/10 15:23:56;;;;;;;53.20;24.87;;;;;;;;;;5003955;28;20631;-86
2024/01/10 15:27:06;;;;;;;50.67;24.57;;;;;;;;;;4981318;28;20552;-85
2024/01/10 15:30:10;;;;;;;46.33;23.83;;;;;;;;;;5003949;28;20560;-85
2024/01/10 15:33:14;;;;;;;47.40;23.50;;;;;;;;;;4992595;28;20560;-85
2024/01/10 15:36:19;;;;;;;50.43;23.10;;;;;;;;;;4992141;28;20615;-85
2024/01/10 15:39:24;;;;;;;44.03;23.17;;;;;;;;;;5003266;28;20556;-86
2024/01/10 15:42:28;;;;;;;49.37;24.37;;;;;;;;;;4994004;28;20560;-85
2024/01/10 15:45:33;;;;;;;47.23;23.60;;;;;;;;;;5006185;28;20631;-86
2024/01/10 15:48:38;;;;;;;46.73;22.70;;;;;;;;;;4995281;28;20564;-86
2024/01/10 15:51:42;;;;;;;44.70;22.73;;;;;;;;;;4995445;28;20551;-85
2024/01/10 15:54:47;;;;;;;49.43;23.03;;;;;;;;;;5006516;28;20615;-85
2024/01/10 15:57:51;;;;;;;47.10;22.80;;;;;;;;;;5006040;28;20548;-86
2024/01/10 16:00:56;;;;;;;50.57;23.37;;;;;;;;;;4995380;28;20576;-86
2024/01/10 16:04:01;;;;;;;48.37;23.20;;;;;;;;;;5019499;28;20630;-85
2024/01/10 16:07:06;;;;;;;48.63;23.80;;;;;;;;;;5019627;28;20556;-85
2024/01/10 16:10:10;;;;;;;46.83;22.80;;;;;;;;;;4996563;28;20600;-84
2024/01/10 16:13:17;;;;;;;49.90;23.20;;;;;;;;;;5007499;28;20555;-84
2024/01/10 16:16:22;;;;;;;51.77;23.70;;;;;;;;;;5007490;28;20616;-84
2024/01/10 16:19:27;;;;;;;52.53;24.33;;;;;;;;;;5006727;28;20583;-84
2024/01/10 16:22:33;;;;;;;50.27;24.10;;;;;;;;;;5018649;28;20563;-84
2024/01/10 16:25:37;;;;;;;48.93;23.50;;;;;;;;;;4983886;28;20615;-83
2024/01/10 16:28:45;;;;;;;49.90;23.97;;;;;;;;;;5001259;28;20650;-83
2024/01/10 16:31:49;;;;;;;55.53;25.43;;;;;;;;;;4998684;28;20942;-83
2024/01/10 16:34:54;;;;;;;52.97;24.57;;;;;;;;;;5021062;28;20653;-84
2024/01/10 16:38:00;;;;;;;47.17;23.33;;;;;;;;;;5036467;28;20941;-83
2024/01/10 16:41:04;;;;;;;45.60;22.83;;;;;;;;;;5024669;28;20562;-84
2024/01/10 16:44:10;;;;;;;58.00;25.13;;;;;;;;;;5036927;28;20618;-86
2024/01/10 16:47:15;;;;;;;48.80;23.57;;;;;;;;;;5026033;28;20554;-85
2024/01/10 16:50:18;;;;;;;51.43;23.77;;;;;;;;;;5025724;28;20577;-84
2024/01/10 16:53:23;;;;;;;47.60;23.17;;;;;;;;;;5042012;28;21123;-85
2024/01/10 16:56:27;;;;;;;49.70;23.73;;;;;;;;;;5046534;28;20614;-85
2024/01/10 16:59:34;;;;;;;55.27;24.53;;;;;;;;;;5044616;28;20550;-85
2024/01/10 17:02:38;;;;;;;50.60;23.30;;;;;;;;;;5043477;28;20559;-84
2024/01/10 17:05:43;;;;;;;53.00;24.37;;;;;;;;;;5045414;28;20614;-85
2024/01/10 17:08:47;;;;;;;50.47;24.43;;;;;;;;;;5043064;28;20559;-84
2024/01/10 17:11:51;;;;;;;53.67;26.80;;;;;;;;;;5030306;28;20554;-87
2024/01/10 17:14:57;;;;;;;50.37;25.13;;;;;;;;;;5032787;28;20625;-85
2024/01/10 17:18:01;;;;;;;50.93;22.90;;;;;;;;;;5030430;28;20559;-85
2024/01/10 17:21:07;;;;;;;50.10;23.47;;;;;;;;;;5029740;28;20555;-85
2024/01/10 17:24:12;;;;;;;62.13;25.70;;;;;;;;;;5041496;28;20635;-86
2024/01/10 17:27:17;;;;;;;55.90;24.90;;;;;;;;;;5040785;28;20559;-85
2024/01/10 17:30:22;;;;;;;55.70;26.27;;;;;;;;;;5042272;28;20551;-85
2024/01/10 17:33:26;;;;;;;60.20;24.83;;;;;;;;;;5032512;28;20563;-85
2024/01/10 17:36:35;;;;;;;56.80;24.53;;;;;;;;;;5045828;28;20606;-85
2024/01/10 17:39:40;;;;;;;54.20;25.17;;;;;;;;;;5046720;28;20562;-85
2024/01/10 17:42:44;;;;;;;59.33;24.60;;;;;;;;;;5045570;28;20558;-85
2024/01/10 17:45:48;;;;;;;50.30;23.97;;;;;;;;;;5045028;28;20618;-84
2024/01/10 17:48:53;;;;;;;59.00;25.33;;;;;;;;;;5048372;28;20562;-84
2024/01/10 17:51:57;;;;;;;53.97;25.47;;;;;;;;;;5046933;28;20555;-84
2024/01/10 17:55:01;;;;;;;58.97;27.40;;;;;;;;;;5046494;28;20625;-84